Aviation Digital Data Service (ADDS)

Output produced by METARs form (2201 UTC 31 March 2015)
found at http://aviationweather.gov/adds/metars/
 
KLFT 311720Z 3118/0118 22012G20KT P6SM SCT025 BKN035 
     FM010000 18007KT P6SM SCT050 
     FM010500 VRB03KT 3SM BR SCT005 
     FM010800 00000KT 1/4SM FG VV001 
     TEMPO 0113/0115 3SM BR BKN005 
     FM011500 18008KT P6SM SCT025 BKN035